sensor_id;sensor_type;location;lat;lon;timestamp;P1;durP1;ratioP1;P2;durP2;ratioP2
66139;SDS011;52945;51.908;8.364;2022-11-12T00:02:12;8.15;;;4.28;;
66139;SDS011;52945;51.908;8.364;2022-11-12T00:05:13;8.77;;;4.15;;
66139;SDS011;52945;51.908;8.364;2022-11-12T00:08:13;7.30;;;3.88;;
66139;SDS011;52945;51.908;8.364;2022-11-12T00:11:14;8.95;;;4.05;;
66139;SDS011;52945;51.908;8.364;2022-11-12T00:14:14;12.10;;;4.13;;
66139;SDS011;52945;51.908;8.364;2022-11-12T00:17:15;7.43;;;4.30;;
66139;SDS011;52945;51.908;8.364;2022-11-12T00:20:16;8.32;;;4.45;;
66139;SDS011;52945;51.908;8.364;2022-11-12T00:23:16;7.63;;;4.00;;
66139;SDS011;52945;51.908;8.364;2022-11-12T00:26:17;8.80;;;4.65;;
66139;SDS011;52945;51.908;8.364;2022-11-12T00:29:17;7.47;;;4.05;;
66139;SDS011;52945;51.908;8.364;2022-11-12T00:32:18;12.48;;;4.35;;
66139;SDS011;52945;51.908;8.364;2022-11-12T00:35:19;6.40;;;3.15;;
66139;SDS011;52945;51.908;8.364;2022-11-12T00:38:19;8.93;;;3.88;;
66139;SDS011;52945;51.908;8.364;2022-11-12T00:41:20;10.48;;;5.05;;
66139;SDS011;52945;51.908;8.364;2022-11-12T00:44:20;6.70;;;3.80;;
66139;SDS011;52945;51.908;8.364;2022-11-12T00:47:21;7.18;;;4.22;;
66139;SDS011;52945;51.908;8.364;2022-11-12T00:50:22;9.68;;;4.43;;
66139;SDS011;52945;51.908;8.364;2022-11-12T00:53:23;7.90;;;3.80;;
66139;SDS011;52945;51.908;8.364;2022-11-12T00:56:24;9.55;;;4.38;;
66139;SDS011;52945;51.908;8.364;2022-11-12T00:59:24;6.85;;;3.90;;
66139;SDS011;52945;51.908;8.364;2022-11-12T01:02:25;8.60;;;4.50;;
66139;SDS011;52945;51.908;8.364;2022-11-12T01:05:25;10.85;;;3.88;;
66139;SDS011;52945;51.908;8.364;2022-11-12T01:08:27;8.75;;;4.28;;
66139;SDS011;52945;51.908;8.364;2022-11-12T01:11:28;9.43;;;4.32;;
66139;SDS011;52945;51.908;8.364;2022-11-12T01:14:29;9.88;;;4.20;;
66139;SDS011;52945;51.908;8.364;2022-11-12T01:17:30;9.30;;;4.18;;
66139;SDS011;52945;51.908;8.364;2022-11-12T01:20:31;9.38;;;4.80;;
66139;SDS011;52945;51.908;8.364;2022-11-12T01:23:32;7.07;;;3.88;;
66139;SDS011;52945;51.908;8.364;2022-11-12T01:26:33;8.40;;;4.22;;
66139;SDS011;52945;51.908;8.364;2022-11-12T01:29:34;7.05;;;4.28;;
66139;SDS011;52945;51.908;8.364;2022-11-12T01:32:35;5.43;;;3.70;;
66139;SDS011;52945;51.908;8.364;2022-11-12T01:38:37;7.28;;;3.75;;
66139;SDS011;52945;51.908;8.364;2022-11-12T01:41:39;8.63;;;4.20;;
66139;SDS011;52945;51.908;8.364;2022-11-12T01:44:41;8.95;;;4.15;;
66139;SDS011;52945;51.908;8.364;2022-11-12T01:47:45;5.68;;;3.63;;
66139;SDS011;52945;51.908;8.364;2022-11-12T01:50:49;7.85;;;3.30;;
66139;SDS011;52945;51.908;8.364;2022-11-12T01:53:52;5.50;;;3.50;;
66139;SDS011;52945;51.908;8.364;2022-11-12T01:56:56;6.57;;;3.65;;
66139;SDS011;52945;51.908;8.364;2022-11-12T01:59:59;5.70;;;3.15;;
66139;SDS011;52945;51.908;8.364;2022-11-12T02:03:05;9.30;;;3.42;;
66139;SDS011;52945;51.908;8.364;2022-11-12T02:06:11;6.10;;;3.63;;
66139;SDS011;52945;51.908;8.364;2022-11-12T02:09:13;6.60;;;4.20;;
66139;SDS011;52945;51.908;8.364;2022-11-12T02:12:14;5.97;;;3.22;;
66139;SDS011;52945;51.908;8.364;2022-11-12T02:15:35;6.10;;;3.17;;
66139;SDS011;52945;51.908;8.364;2022-11-12T02:18:37;7.78;;;4.38;;
66139;SDS011;52945;51.908;8.364;2022-11-12T02:21:38;7.40;;;4.43;;
66139;SDS011;52945;51.908;8.364;2022-11-12T02:24:39;7.35;;;3.80;;
66139;SDS011;52945;51.908;8.364;2022-11-12T02:27:39;7.50;;;3.38;;
66139;SDS011;52945;51.908;8.364;2022-11-12T02:30:44;8.73;;;4.25;;
66139;SDS011;52945;51.908;8.364;2022-11-12T02:33:47;8.60;;;4.20;;
66139;SDS011;52945;51.908;8.364;2022-11-12T02:36:47;9.05;;;3.63;;
66139;SDS011;52945;51.908;8.364;2022-11-12T02:39:48;7.03;;;3.50;;
66139;SDS011;52945;51.908;8.364;2022-11-12T02:42:48;5.38;;;3.25;;
66139;SDS011;52945;51.908;8.364;2022-11-12T02:45:49;5.50;;;3.25;;
66139;SDS011;52945;51.908;8.364;2022-11-12T02:48:50;8.27;;;3.55;;
66139;SDS011;52945;51.908;8.364;2022-11-12T02:51:50;6.22;;;2.95;;
66139;SDS011;52945;51.908;8.364;2022-11-12T02:54:51;6.28;;;3.20;;
66139;SDS011;52945;51.908;8.364;2022-11-12T02:57:55;6.35;;;3.05;;
66139;SDS011;52945;51.908;8.364;2022-11-12T03:00:57;5.40;;;2.55;;
66139;SDS011;52945;51.908;8.364;2022-11-12T03:03:57;6.95;;;3.40;;
66139;SDS011;52945;51.908;8.364;2022-11-12T03:06:59;5.35;;;3.03;;
66139;SDS011;52945;51.908;8.364;2022-11-12T03:09:59;7.85;;;3.22;;
66139;SDS011;52945;51.908;8.364;2022-11-12T03:13:00;6.47;;;3.03;;
66139;SDS011;52945;51.908;8.364;2022-11-12T03:16:01;4.65;;;3.03;;
66139;SDS011;52945;51.908;8.364;2022-11-12T03:19:02;6.63;;;3.08;;
66139;SDS011;52945;51.908;8.364;2022-11-12T03:22:03;6.95;;;3.10;;
66139;SDS011;52945;51.908;8.364;2022-11-12T03:25:04;6.80;;;3.15;;
66139;SDS011;52945;51.908;8.364;2022-11-12T03:28:09;6.45;;;3.53;;
66139;SDS011;52945;51.908;8.364;2022-11-12T03:31:11;4.78;;;2.55;;
66139;SDS011;52945;51.908;8.364;2022-11-12T03:34:11;4.95;;;2.97;;
66139;SDS011;52945;51.908;8.364;2022-11-12T03:37:12;5.38;;;2.88;;
66139;SDS011;52945;51.908;8.364;2022-11-12T03:40:12;7.78;;;3.10;;
66139;SDS011;52945;51.908;8.364;2022-11-12T03:43:13;5.70;;;2.58;;
66139;SDS011;52945;51.908;8.364;2022-11-12T03:46:14;7.88;;;3.42;;
66139;SDS011;52945;51.908;8.364;2022-11-12T03:49:14;12.52;;;3.15;;
66139;SDS011;52945;51.908;8.364;2022-11-12T03:52:15;5.53;;;2.47;;
66139;SDS011;52945;51.908;8.364;2022-11-12T03:55:16;7.30;;;3.17;;
66139;SDS011;52945;51.908;8.364;2022-11-12T03:58:19;5.78;;;2.85;;
66139;SDS011;52945;51.908;8.364;2022-11-12T04:01:19;5.95;;;2.90;;
66139;SDS011;52945;51.908;8.364;2022-11-12T04:04:20;5.65;;;3.22;;
66139;SDS011;52945;51.908;8.364;2022-11-12T04:07:20;5.20;;;2.45;;
66139;SDS011;52945;51.908;8.364;2022-11-12T04:10:39;3.80;;;2.25;;
66139;SDS011;52945;51.908;8.364;2022-11-12T04:13:41;3.13;;;2.08;;
66139;SDS011;52945;51.908;8.364;2022-11-12T04:23:20;8.88;;;2.45;;
66139;SDS011;52945;51.908;8.364;2022-11-12T04:26:21;3.03;;;2.10;;
66139;SDS011;52945;51.908;8.364;2022-11-12T04:29:24;4.10;;;2.08;;
66139;SDS011;52945;51.908;8.364;2022-11-12T04:32:45;2.88;;;2.22;;
66139;SDS011;52945;51.908;8.364;2022-11-12T04:35:47;3.67;;;2.20;;
66139;SDS011;52945;51.908;8.364;2022-11-12T04:38:48;3.40;;;2.40;;
66139;SDS011;52945;51.908;8.364;2022-11-12T04:41:49;2.35;;;2.13;;
66139;SDS011;52945;51.908;8.364;2022-11-12T04:45:08;4.38;;;2.65;;
66139;SDS011;52945;51.908;8.364;2022-11-12T04:48:09;5.20;;;2.67;;
66139;SDS011;52945;51.908;8.364;2022-11-12T04:51:10;4.28;;;2.35;;
66139;SDS011;52945;51.908;8.364;2022-11-12T04:54:29;5.30;;;2.55;;
66139;SDS011;52945;51.908;8.364;2022-11-12T04:57:30;2.78;;;2.10;;
66139;SDS011;52945;51.908;8.364;2022-11-12T05:00:30;3.50;;;2.15;;
66139;SDS011;52945;51.908;8.364;2022-11-12T05:03:31;4.15;;;2.55;;
66139;SDS011;52945;51.908;8.364;2022-11-12T05:06:31;4.55;;;2.08;;
66139;SDS011;52945;51.908;8.364;2022-11-12T05:09:50;6.07;;;2.22;;
66139;SDS011;52945;51.908;8.364;2022-11-12T05:12:51;3.00;;;1.88;;
66139;SDS011;52945;51.908;8.364;2022-11-12T05:15:51;4.07;;;2.38;;
66139;SDS011;52945;51.908;8.364;2022-11-12T05:18:52;3.30;;;2.08;;
66139;SDS011;52945;51.908;8.364;2022-11-12T05:21:52;4.50;;;2.50;;
66139;SDS011;52945;51.908;8.364;2022-11-12T05:25:05;3.00;;;2.03;;
66139;SDS011;52945;51.908;8.364;2022-11-12T05:31:07;4.65;;;2.40;;
66139;SDS011;52945;51.908;8.364;2022-11-12T05:34:08;5.55;;;2.67;;
66139;SDS011;52945;51.908;8.364;2022-11-12T05:37:10;2.58;;;1.83;;
66139;SDS011;52945;51.908;8.364;2022-11-12T05:40:12;3.92;;;2.42;;
66139;SDS011;52945;51.908;8.364;2022-11-12T05:43:12;2.40;;;1.88;;
66139;SDS011;52945;51.908;8.364;2022-11-12T05:46:13;6.88;;;2.47;;
66139;SDS011;52945;51.908;8.364;2022-11-12T05:49:13;4.35;;;2.30;;
66139;SDS011;52945;51.908;8.364;2022-11-12T05:52:14;4.88;;;2.58;;
66139;SDS011;52945;51.908;8.364;2022-11-12T05:55:15;4.88;;;2.80;;
66139;SDS011;52945;51.908;8.364;2022-11-12T05:58:15;5.18;;;2.60;;
66139;SDS011;52945;51.908;8.364;2022-11-12T06:01:16;4.72;;;2.15;;
66139;SDS011;52945;51.908;8.364;2022-11-12T06:04:16;5.90;;;2.20;;
66139;SDS011;52945;51.908;8.364;2022-11-12T06:07:17;5.95;;;2.50;;
66139;SDS011;52945;51.908;8.364;2022-11-12T06:10:18;4.00;;;2.20;;
66139;SDS011;52945;51.908;8.364;2022-11-12T06:13:19;2.63;;;1.70;;
66139;SDS011;52945;51.908;8.364;2022-11-12T06:16:21;4.80;;;2.72;;
66139;SDS011;52945;51.908;8.364;2022-11-12T06:19:21;4.50;;;2.33;;
66139;SDS011;52945;51.908;8.364;2022-11-12T06:22:22;6.07;;;2.70;;
66139;SDS011;52945;51.908;8.364;2022-11-12T06:25:22;5.30;;;2.13;;
66139;SDS011;52945;51.908;8.364;2022-11-12T06:28:23;1.98;;;1.55;;
66139;SDS011;52945;51.908;8.364;2022-11-12T06:31:24;3.30;;;2.35;;
66139;SDS011;52945;51.908;8.364;2022-11-12T06:34:24;5.10;;;2.92;;
66139;SDS011;52945;51.908;8.364;2022-11-12T06:37:25;2.92;;;2.00;;
66139;SDS011;52945;51.908;8.364;2022-11-12T06:40:25;6.82;;;2.40;;
66139;SDS011;52945;51.908;8.364;2022-11-12T06:43:27;5.47;;;2.13;;
66139;SDS011;52945;51.908;8.364;2022-11-12T06:46:28;6.22;;;2.30;;
66139;SDS011;52945;51.908;8.364;2022-11-12T06:49:29;2.67;;;1.90;;
66139;SDS011;52945;51.908;8.364;2022-11-12T06:52:29;4.57;;;2.13;;
66139;SDS011;52945;51.908;8.364;2022-11-12T06:55:30;4.70;;;2.13;;
66139;SDS011;52945;51.908;8.364;2022-11-12T06:58:31;3.22;;;2.10;;
66139;SDS011;52945;51.908;8.364;2022-11-12T07:01:32;3.38;;;2.00;;
66139;SDS011;52945;51.908;8.364;2022-11-12T07:04:32;3.47;;;1.88;;
66139;SDS011;52945;51.908;8.364;2022-11-12T07:07:33;5.40;;;2.15;;
66139;SDS011;52945;51.908;8.364;2022-11-12T07:10:33;3.30;;;2.25;;
66139;SDS011;52945;51.908;8.364;2022-11-12T07:13:34;4.97;;;2.50;;
66139;SDS011;52945;51.908;8.364;2022-11-12T07:16:35;4.57;;;2.28;;
66139;SDS011;52945;51.908;8.364;2022-11-12T07:19:36;4.55;;;2.58;;
66139;SDS011;52945;51.908;8.364;2022-11-12T07:22:36;4.65;;;2.45;;
66139;SDS011;52945;51.908;8.364;2022-11-12T07:25:37;6.53;;;2.58;;
66139;SDS011;52945;51.908;8.364;2022-11-12T07:28:37;6.97;;;2.50;;
66139;SDS011;52945;51.908;8.364;2022-11-12T07:31:38;4.50;;;2.33;;
66139;SDS011;52945;51.908;8.364;2022-11-12T07:34:39;3.88;;;2.88;;
66139;SDS011;52945;51.908;8.364;2022-11-12T07:37:39;5.75;;;2.75;;
66139;SDS011;52945;51.908;8.364;2022-11-12T07:40:40;6.45;;;2.35;;
66139;SDS011;52945;51.908;8.364;2022-11-12T07:43:41;4.22;;;2.20;;
66139;SDS011;52945;51.908;8.364;2022-11-12T07:46:43;4.75;;;2.17;;
66139;SDS011;52945;51.908;8.364;2022-11-12T07:49:43;4.43;;;2.35;;
66139;SDS011;52945;51.908;8.364;2022-11-12T07:52:44;3.85;;;2.60;;
66139;SDS011;52945;51.908;8.364;2022-11-12T07:55:51;3.88;;;2.03;;
66139;SDS011;52945;51.908;8.364;2022-11-12T07:58:55;4.03;;;2.42;;
66139;SDS011;52945;51.908;8.364;2022-11-12T08:01:56;3.92;;;2.83;;
66139;SDS011;52945;51.908;8.364;2022-11-12T08:04:57;3.30;;;2.28;;
66139;SDS011;52945;51.908;8.364;2022-11-12T08:07:57;5.32;;;2.72;;
66139;SDS011;52945;51.908;8.364;2022-11-12T08:10:58;6.63;;;2.80;;
66139;SDS011;52945;51.908;8.364;2022-11-12T08:13:59;5.40;;;3.08;;
66139;SDS011;52945;51.908;8.364;2022-11-12T08:16:59;9.52;;;3.50;;
66139;SDS011;52945;51.908;8.364;2022-11-12T08:20:00;6.47;;;3.10;;
66139;SDS011;52945;51.908;8.364;2022-11-12T08:23:00;4.00;;;2.67;;
66139;SDS011;52945;51.908;8.364;2022-11-12T08:26:02;7.47;;;3.20;;
66139;SDS011;52945;51.908;8.364;2022-11-12T08:29:05;6.25;;;3.00;;
66139;SDS011;52945;51.908;8.364;2022-11-12T08:32:06;5.03;;;2.97;;
66139;SDS011;52945;51.908;8.364;2022-11-12T08:35:06;6.75;;;2.58;;
66139;SDS011;52945;51.908;8.364;2022-11-12T08:38:07;7.50;;;2.83;;
66139;SDS011;52945;51.908;8.364;2022-11-12T08:41:10;5.18;;;2.20;;
66139;SDS011;52945;51.908;8.364;2022-11-12T08:44:12;10.13;;;2.80;;
66139;SDS011;52945;51.908;8.364;2022-11-12T08:47:12;3.67;;;2.47;;
66139;SDS011;52945;51.908;8.364;2022-11-12T08:50:13;4.07;;;2.28;;
66139;SDS011;52945;51.908;8.364;2022-11-12T08:53:14;5.50;;;2.28;;
66139;SDS011;52945;51.908;8.364;2022-11-12T08:56:15;3.67;;;2.30;;
66139;SDS011;52945;51.908;8.364;2022-11-12T08:59:15;4.03;;;2.28;;
66139;SDS011;52945;51.908;8.364;2022-11-12T09:02:16;3.72;;;2.20;;
66139;SDS011;52945;51.908;8.364;2022-11-12T09:05:17;3.33;;;2.10;;
66139;SDS011;52945;51.908;8.364;2022-11-12T09:08:18;5.22;;;2.30;;
66139;SDS011;52945;51.908;8.364;2022-11-12T09:11:21;2.92;;;2.03;;
66139;SDS011;52945;51.908;8.364;2022-11-12T09:14:21;2.60;;;2.10;;
66139;SDS011;52945;51.908;8.364;2022-11-12T09:17:22;4.63;;;1.98;;
66139;SDS011;52945;51.908;8.364;2022-11-12T09:20:23;3.78;;;2.20;;
66139;SDS011;52945;51.908;8.364;2022-11-12T09:23:24;3.58;;;2.35;;
66139;SDS011;52945;51.908;8.364;2022-11-12T09:26:25;3.92;;;2.15;;
66139;SDS011;52945;51.908;8.364;2022-11-12T09:29:25;4.35;;;2.75;;
66139;SDS011;52945;51.908;8.364;2022-11-12T09:32:26;3.63;;;2.00;;
66139;SDS011;52945;51.908;8.364;2022-11-12T09:35:26;5.25;;;3.00;;
66139;SDS011;52945;51.908;8.364;2022-11-12T09:38:27;4.57;;;2.22;;
66139;SDS011;52945;51.908;8.364;2022-11-12T09:41:31;4.25;;;2.50;;
66139;SDS011;52945;51.908;8.364;2022-11-12T09:44:37;4.45;;;2.65;;
66139;SDS011;52945;51.908;8.364;2022-11-12T09:47:41;5.95;;;3.20;;
66139;SDS011;52945;51.908;8.364;2022-11-12T09:50:49;5.82;;;3.30;;
66139;SDS011;52945;51.908;8.364;2022-11-12T09:53:56;4.40;;;2.88;;
66139;SDS011;52945;51.908;8.364;2022-11-12T09:56:58;4.20;;;2.05;;
66139;SDS011;52945;51.908;8.364;2022-11-12T09:59:59;4.70;;;2.40;;
66139;SDS011;52945;51.908;8.364;2022-11-12T10:06:08;4.65;;;2.30;;
66139;SDS011;52945;51.908;8.364;2022-11-12T10:09:18;4.05;;;1.83;;
66139;SDS011;52945;51.908;8.364;2022-11-12T10:25:29;4.43;;;2.22;;
66139;SDS011;52945;51.908;8.364;2022-11-12T10:28:42;5.57;;;2.13;;
66139;SDS011;52945;51.908;8.364;2022-11-12T10:31:46;3.28;;;2.03;;
66139;SDS011;52945;51.908;8.364;2022-11-12T10:34:47;3.60;;;2.38;;
66139;SDS011;52945;51.908;8.364;2022-11-12T10:37:49;3.63;;;2.40;;
66139;SDS011;52945;51.908;8.364;2022-11-12T10:40:59;2.97;;;2.13;;
66139;SDS011;52945;51.908;8.364;2022-11-12T10:44:18;4.40;;;2.30;;
66139;SDS011;52945;51.908;8.364;2022-11-12T10:47:32;3.25;;;2.10;;
66139;SDS011;52945;51.908;8.364;2022-11-12T10:50:41;5.40;;;2.42;;
66139;SDS011;52945;51.908;8.364;2022-11-12T10:53:42;3.85;;;2.13;;
66139;SDS011;52945;51.908;8.364;2022-11-12T10:56:42;3.38;;;2.03;;
66139;SDS011;52945;51.908;8.364;2022-11-12T10:59:43;3.85;;;2.50;;
66139;SDS011;52945;51.908;8.364;2022-11-12T11:02:45;2.65;;;2.00;;
66139;SDS011;52945;51.908;8.364;2022-11-12T11:12:24;6.00;;;2.85;;
66139;SDS011;52945;51.908;8.364;2022-11-12T11:15:27;3.88;;;2.28;;
66139;SDS011;52945;51.908;8.364;2022-11-12T11:18:28;4.05;;;3.03;;
66139;SDS011;52945;51.908;8.364;2022-11-12T11:38:31;3.17;;;1.90;;
66139;SDS011;52945;51.908;8.364;2022-11-12T12:08:55;2.53;;;1.83;;
66139;SDS011;52945;51.908;8.364;2022-11-12T12:18:38;5.07;;;2.45;;
66139;SDS011;52945;51.908;8.364;2022-11-12T12:21:58;3.80;;;2.20;;
66139;SDS011;52945;51.908;8.364;2022-11-12T12:25:08;4.07;;;2.10;;
66139;SDS011;52945;51.908;8.364;2022-11-12T12:28:26;2.33;;;1.90;;
66139;SDS011;52945;51.908;8.364;2022-11-12T12:31:38;2.88;;;1.90;;
66139;SDS011;52945;51.908;8.364;2022-11-12T12:34:47;3.50;;;1.83;;
66139;SDS011;52945;51.908;8.364;2022-11-12T12:47:14;2.35;;;1.65;;
66139;SDS011;52945;51.908;8.364;2022-11-12T12:50:17;2.50;;;1.60;;
66139;SDS011;52945;51.908;8.364;2022-11-12T12:59:22;1.77;;;1.65;;
66139;SDS011;52945;51.908;8.364;2022-11-12T13:02:23;2.00;;;1.40;;
66139;SDS011;52945;51.908;8.364;2022-11-12T13:05:25;2.45;;;1.33;;
66139;SDS011;52945;51.908;8.364;2022-11-12T13:08:36;4.05;;;1.60;;
66139;SDS011;52945;51.908;8.364;2022-11-12T13:15:12;3.53;;;1.75;;
66139;SDS011;52945;51.908;8.364;2022-11-12T13:21:36;3.20;;;1.85;;
66139;SDS011;52945;51.908;8.364;2022-11-12T13:28:04;4.03;;;2.10;;
66139;SDS011;52945;51.908;8.364;2022-11-12T13:31:22;3.83;;;1.90;;
66139;SDS011;52945;51.908;8.364;2022-11-12T13:34:26;2.45;;;2.03;;
66139;SDS011;52945;51.908;8.364;2022-11-12T13:37:31;3.33;;;1.83;;
66139;SDS011;52945;51.908;8.364;2022-11-12T13:43:37;6.30;;;2.13;;
66139;SDS011;52945;51.908;8.364;2022-11-12T13:46:40;3.65;;;1.70;;
66139;SDS011;52945;51.908;8.364;2022-11-12T13:49:43;2.78;;;2.10;;
66139;SDS011;52945;51.908;8.364;2022-11-12T13:52:44;3.13;;;2.00;;
66139;SDS011;52945;51.908;8.364;2022-11-12T13:55:50;3.35;;;2.22;;
66139;SDS011;52945;51.908;8.364;2022-11-12T13:58:52;2.75;;;2.10;;
66139;SDS011;52945;51.908;8.364;2022-11-12T14:01:53;3.90;;;2.10;;
66139;SDS011;52945;51.908;8.364;2022-11-12T14:04:54;2.17;;;1.60;;
66139;SDS011;52945;51.908;8.364;2022-11-12T14:08:04;3.78;;;2.22;;
66139;SDS011;52945;51.908;8.364;2022-11-12T14:22:12;3.53;;;2.10;;
66139;SDS011;52945;51.908;8.364;2022-11-12T14:25:16;2.88;;;1.70;;
66139;SDS011;52945;51.908;8.364;2022-11-12T14:28:27;3.17;;;1.85;;
66139;SDS011;52945;51.908;8.364;2022-11-12T14:31:35;3.65;;;2.00;;
66139;SDS011;52945;51.908;8.364;2022-11-12T14:34:35;4.03;;;1.80;;
66139;SDS011;52945;51.908;8.364;2022-11-12T14:37:36;5.78;;;2.10;;
66139;SDS011;52945;51.908;8.364;2022-11-12T14:40:45;4.20;;;2.05;;
66139;SDS011;52945;51.908;8.364;2022-11-12T14:43:57;4.07;;;2.03;;
66139;SDS011;52945;51.908;8.364;2022-11-12T14:47:01;4.18;;;1.83;;
66139;SDS011;52945;51.908;8.364;2022-11-12T14:53:04;2.90;;;1.80;;
66139;SDS011;52945;51.908;8.364;2022-11-12T14:56:20;4.70;;;1.98;;
66139;SDS011;52945;51.908;8.364;2022-11-12T14:59:32;3.72;;;2.08;;
66139;SDS011;52945;51.908;8.364;2022-11-12T15:02:35;6.43;;;2.28;;
66139;SDS011;52945;51.908;8.364;2022-11-12T15:08:57;1.85;;;1.63;;
66139;SDS011;52945;51.908;8.364;2022-11-12T15:11:58;3.63;;;2.40;;
66139;SDS011;52945;51.908;8.364;2022-11-12T15:15:04;5.63;;;2.40;;
66139;SDS011;52945;51.908;8.364;2022-11-12T15:18:20;4.60;;;2.70;;
66139;SDS011;52945;51.908;8.364;2022-11-12T15:21:26;4.72;;;2.33;;
66139;SDS011;52945;51.908;8.364;2022-11-12T15:24:28;5.50;;;2.28;;
66139;SDS011;52945;51.908;8.364;2022-11-12T15:27:37;4.47;;;2.20;;
66139;SDS011;52945;51.908;8.364;2022-11-12T15:30:40;3.78;;;2.40;;
66139;SDS011;52945;51.908;8.364;2022-11-12T15:33:40;3.97;;;2.90;;
66139;SDS011;52945;51.908;8.364;2022-11-12T15:36:41;5.13;;;2.70;;
66139;SDS011;52945;51.908;8.364;2022-11-12T15:39:43;7.00;;;2.60;;
66139;SDS011;52945;51.908;8.364;2022-11-12T15:42:49;8.38;;;3.30;;
66139;SDS011;52945;51.908;8.364;2022-11-12T15:45:50;9.45;;;4.38;;
66139;SDS011;52945;51.908;8.364;2022-11-12T15:48:52;11.30;;;5.10;;
66139;SDS011;52945;51.908;8.364;2022-11-12T15:51:52;8.52;;;3.85;;
66139;SDS011;52945;51.908;8.364;2022-11-12T15:54:53;9.55;;;3.83;;
66139;SDS011;52945;51.908;8.364;2022-11-12T15:57:53;9.68;;;4.70;;
66139;SDS011;52945;51.908;8.364;2022-11-12T16:00:54;10.70;;;4.40;;
66139;SDS011;52945;51.908;8.364;2022-11-12T16:03:55;7.22;;;4.00;;
66139;SDS011;52945;51.908;8.364;2022-11-12T16:06:55;10.18;;;5.07;;
66139;SDS011;52945;51.908;8.364;2022-11-12T16:09:56;12.07;;;5.72;;
66139;SDS011;52945;51.908;8.364;2022-11-12T16:12:57;14.93;;;6.50;;
66139;SDS011;52945;51.908;8.364;2022-11-12T16:16:00;18.15;;;6.43;;
66139;SDS011;52945;51.908;8.364;2022-11-12T16:19:10;9.80;;;5.03;;
66139;SDS011;52945;51.908;8.364;2022-11-12T16:22:13;10.88;;;5.38;;
66139;SDS011;52945;51.908;8.364;2022-11-12T16:25:14;10.02;;;5.22;;
66139;SDS011;52945;51.908;8.364;2022-11-12T16:28:15;11.50;;;5.63;;
66139;SDS011;52945;51.908;8.364;2022-11-12T16:31:18;11.38;;;6.20;;
66139;SDS011;52945;51.908;8.364;2022-11-12T16:34:19;12.65;;;6.50;;
66139;SDS011;52945;51.908;8.364;2022-11-12T16:37:20;18.90;;;7.00;;
66139;SDS011;52945;51.908;8.364;2022-11-12T16:40:22;14.85;;;7.97;;
66139;SDS011;52945;51.908;8.364;2022-11-12T16:43:24;14.18;;;7.47;;
66139;SDS011;52945;51.908;8.364;2022-11-12T16:46:29;11.82;;;6.68;;
66139;SDS011;52945;51.908;8.364;2022-11-12T16:49:33;14.60;;;7.78;;
66139;SDS011;52945;51.908;8.364;2022-11-12T16:52:34;12.18;;;7.25;;
66139;SDS011;52945;51.908;8.364;2022-11-12T16:55:34;13.75;;;7.05;;
66139;SDS011;52945;51.908;8.364;2022-11-12T16:58:35;12.02;;;6.60;;
66139;SDS011;52945;51.908;8.364;2022-11-12T17:01:36;12.65;;;6.97;;
66139;SDS011;52945;51.908;8.364;2022-11-12T17:04:36;12.68;;;6.82;;
66139;SDS011;52945;51.908;8.364;2022-11-12T17:07:37;14.63;;;6.95;;
66139;SDS011;52945;51.908;8.364;2022-11-12T17:10:37;13.80;;;6.50;;
66139;SDS011;52945;51.908;8.364;2022-11-12T17:13:38;16.02;;;7.68;;
66139;SDS011;52945;51.908;8.364;2022-11-12T17:16:38;14.88;;;7.25;;
66139;SDS011;52945;51.908;8.364;2022-11-12T17:19:39;13.23;;;6.95;;
66139;SDS011;52945;51.908;8.364;2022-11-12T17:22:40;13.73;;;7.25;;
66139;SDS011;52945;51.908;8.364;2022-11-12T17:25:40;13.85;;;7.30;;
66139;SDS011;52945;51.908;8.364;2022-11-12T17:28:41;15.65;;;6.75;;
66139;SDS011;52945;51.908;8.364;2022-11-12T17:31:41;13.43;;;7.03;;
66139;SDS011;52945;51.908;8.364;2022-11-12T17:34:45;12.65;;;6.93;;
66139;SDS011;52945;51.908;8.364;2022-11-12T17:37:46;17.70;;;7.30;;
66139;SDS011;52945;51.908;8.364;2022-11-12T17:40:47;15.82;;;7.28;;
66139;SDS011;52945;51.908;8.364;2022-11-12T17:43:47;12.55;;;6.57;;
66139;SDS011;52945;51.908;8.364;2022-11-12T17:46:52;14.65;;;8.82;;
66139;SDS011;52945;51.908;8.364;2022-11-12T17:49:52;15.80;;;7.93;;
66139;SDS011;52945;51.908;8.364;2022-11-12T17:52:53;18.00;;;9.00;;
66139;SDS011;52945;51.908;8.364;2022-11-12T17:55:57;16.30;;;7.90;;
66139;SDS011;52945;51.908;8.364;2022-11-12T17:58:58;17.92;;;9.43;;
66139;SDS011;52945;51.908;8.364;2022-11-12T18:02:00;18.98;;;10.48;;
66139;SDS011;52945;51.908;8.364;2022-11-12T18:05:00;20.38;;;11.10;;
66139;SDS011;52945;51.908;8.364;2022-11-12T18:08:01;22.05;;;10.93;;
66139;SDS011;52945;51.908;8.364;2022-11-12T18:11:01;24.77;;;11.70;;
66139;SDS011;52945;51.908;8.364;2022-11-12T18:14:06;21.27;;;10.70;;
66139;SDS011;52945;51.908;8.364;2022-11-12T18:17:07;21.27;;;10.60;;
66139;SDS011;52945;51.908;8.364;2022-11-12T18:20:08;21.00;;;10.68;;
66139;SDS011;52945;51.908;8.364;2022-11-12T18:23:08;20.50;;;10.45;;
66139;SDS011;52945;51.908;8.364;2022-11-12T18:26:12;21.30;;;9.88;;
66139;SDS011;52945;51.908;8.364;2022-11-12T18:32:17;22.52;;;9.93;;
66139;SDS011;52945;51.908;8.364;2022-11-12T18:35:18;18.52;;;9.70;;
66139;SDS011;52945;51.908;8.364;2022-11-12T18:38:18;20.15;;;9.32;;
66139;SDS011;52945;51.908;8.364;2022-11-12T18:41:20;17.50;;;8.98;;
66139;SDS011;52945;51.908;8.364;2022-11-12T18:44:24;16.77;;;8.25;;
66139;SDS011;52945;51.908;8.364;2022-11-12T18:47:25;20.77;;;9.18;;
66139;SDS011;52945;51.908;8.364;2022-11-12T18:50:27;14.88;;;8.15;;
66139;SDS011;52945;51.908;8.364;2022-11-12T18:53:28;17.35;;;8.00;;
66139;SDS011;52945;51.908;8.364;2022-11-12T18:56:29;16.75;;;8.40;;
66139;SDS011;52945;51.908;8.364;2022-11-12T18:59:30;16.83;;;8.80;;
66139;SDS011;52945;51.908;8.364;2022-11-12T19:02:31;15.57;;;8.80;;
66139;SDS011;52945;51.908;8.364;2022-11-12T19:05:32;14.70;;;8.50;;
66139;SDS011;52945;51.908;8.364;2022-11-12T19:08:32;16.65;;;8.45;;
66139;SDS011;52945;51.908;8.364;2022-11-12T19:11:34;22.05;;;9.25;;
66139;SDS011;52945;51.908;8.364;2022-11-12T19:14:34;21.50;;;9.25;;
66139;SDS011;52945;51.908;8.364;2022-11-12T19:17:35;16.05;;;8.20;;
66139;SDS011;52945;51.908;8.364;2022-11-12T19:20:35;17.77;;;9.45;;
66139;SDS011;52945;51.908;8.364;2022-11-12T19:23:36;19.38;;;9.32;;
66139;SDS011;52945;51.908;8.364;2022-11-12T19:26:37;20.25;;;10.20;;
66139;SDS011;52945;51.908;8.364;2022-11-12T19:29:38;23.13;;;10.75;;
66139;SDS011;52945;51.908;8.364;2022-11-12T19:32:38;22.90;;;10.77;;
66139;SDS011;52945;51.908;8.364;2022-11-12T19:35:39;22.23;;;9.95;;
66139;SDS011;52945;51.908;8.364;2022-11-12T19:38:39;18.98;;;9.02;;
66139;SDS011;52945;51.908;8.364;2022-11-12T19:41:40;16.63;;;9.13;;
66139;SDS011;52945;51.908;8.364;2022-11-12T19:44:41;18.30;;;8.10;;
66139;SDS011;52945;51.908;8.364;2022-11-12T19:47:41;15.43;;;7.50;;
66139;SDS011;52945;51.908;8.364;2022-11-12T19:50:42;13.95;;;6.75;;
66139;SDS011;52945;51.908;8.364;2022-11-12T19:53:43;14.63;;;7.28;;
66139;SDS011;52945;51.908;8.364;2022-11-12T19:56:43;14.05;;;7.97;;
66139;SDS011;52945;51.908;8.364;2022-11-12T19:59:44;15.73;;;8.13;;
66139;SDS011;52945;51.908;8.364;2022-11-12T20:02:44;17.70;;;8.55;;
66139;SDS011;52945;51.908;8.364;2022-11-12T20:05:45;13.30;;;7.30;;
66139;SDS011;52945;51.908;8.364;2022-11-12T20:08:45;13.93;;;7.75;;
66139;SDS011;52945;51.908;8.364;2022-11-12T20:11:46;16.77;;;8.50;;
66139;SDS011;52945;51.908;8.364;2022-11-12T20:14:47;13.95;;;7.82;;
66139;SDS011;52945;51.908;8.364;2022-11-12T20:17:47;13.07;;;7.57;;
66139;SDS011;52945;51.908;8.364;2022-11-12T20:20:52;12.90;;;7.20;;
66139;SDS011;52945;51.908;8.364;2022-11-12T20:23:56;13.13;;;6.95;;
66139;SDS011;52945;51.908;8.364;2022-11-12T20:26:57;12.48;;;6.80;;
66139;SDS011;52945;51.908;8.364;2022-11-12T20:29:57;11.05;;;7.05;;